Time;durP1;ratioP1;P1;durP2;ratioP2;P2;SDS_P1;SDS_P2;PMS_P1;PMS_P2;Temp;Humidity;BMP_temperature;BMP_pressure;BME280_temperature;BME280_humidity;BME280_pressure;Samples;Min_cycle;Max_cycle;Signal;HPM_P1;HPM_P2
2023/07/02 00:01:48;;;;;;;;;;;;;;;20.13;57.22;98834.44;10243036;28;899;-67
2023/07/02 00:06:44;;;;;;;;;;;;;;;20.12;57.24;98830.94;10242381;28;1106;-67
2023/07/02 00:11:41;;;;;;;;;;;;;;;20.13;57.22;98831.78;10243591;28;1943;-67
2023/07/02 00:16:37;;;;;;;;;;;;;;;20.13;57.24;98830.00;10250338;28;830;-67
2023/07/02 00:21:37;;;;;;;;;;;;;;;20.13;57.02;98834.44;10249631;28;766;-67
2023/07/02 00:26:33;;;;;;;;;;;;;;;20.11;57.13;98831.88;10249519;28;837;-67
2023/07/02 00:31:30;;;;;;;;;;;;;;;20.12;57.21;98827.44;10249099;28;1894;-67
2023/07/02 00:36:26;;;;;;;;;;;;;;;20.11;57.19;98828.41;10249071;28;887;-67
2023/07/02 00:41:23;;;;;;;;;;;;;;;20.10;57.12;98832.84;10248887;28;866;-67
2023/07/02 00:46:19;;;;;;;;;;;;;;;20.11;57.17;98828.41;10249459;28;806;-67
2023/07/02 00:51:16;;;;;;;;;;;;;;;20.10;57.06;98829.34;10249007;28;2032;-67
2023/07/02 00:56:13;;;;;;;;;;;;;;;20.10;57.23;98824.06;10248390;28;873;-67
2023/07/02 01:01:09;;;;;;;;;;;;;;;20.10;57.08;98826.72;10248632;28;904;-67
2023/07/02 01:06:07;;;;;;;;;;;;;;;20.09;57.18;98833.78;10247355;28;787;-67
2023/07/02 01:11:03;;;;;;;;;;;;;;;20.08;57.14;98831.25;10247815;28;1902;-67
2023/07/02 01:16:00;;;;;;;;;;;;;;;20.07;57.23;98824.28;10247578;28;943;-67
2023/07/02 01:20:57;;;;;;;;;;;;;;;20.06;57.26;98822.56;10247406;28;803;-67
2023/07/02 01:25:54;;;;;;;;;;;;;;;20.06;57.03;98811.97;10247321;28;861;-67
2023/07/02 01:30:50;;;;;;;;;;;;;;;20.06;57.17;98823.41;10246243;28;1946;-67
2023/07/02 01:35:47;;;;;;;;;;;;;;;20.06;57.13;98825.22;10246836;28;912;-67
2023/07/02 01:40:44;;;;;;;;;;;;;;;20.06;57.04;98819.91;10247460;28;905;-67
2023/07/02 01:45:40;;;;;;;;;;;;;;;20.05;57.09;98823.53;10246455;28;862;-66
2023/07/02 01:50:37;;;;;;;;;;;;;;;20.03;56.94;98815.69;10246106;28;1959;-67
2023/07/02 01:55:33;;;;;;;;;;;;;;;20.03;57.12;98783.09;10245964;28;958;-67
2023/07/02 02:00:30;;;;;;;;;;;;;;;20.02;57.09;98798.13;10245960;28;940;-67
2023/07/02 02:05:27;;;;;;;;;;;;;;;20.01;57.17;98787.63;10246301;28;798;-66
2023/07/02 02:10:23;;;;;;;;;;;;;;;20.02;57.12;98794.66;10244858;28;1949;-67
2023/07/02 02:15:20;;;;;;;;;;;;;;;20.00;57.16;98797.38;10245752;28;877;-67
2023/07/02 02:20:16;;;;;;;;;;;;;;;20.00;57.06;98799.19;10245142;28;968;-67
2023/07/02 02:25:13;;;;;;;;;;;;;;;20.02;56.99;98815.81;10244450;28;832;-67
2023/07/02 02:30:10;;;;;;;;;;;;;;;20.03;56.97;98843.94;10244795;28;1895;-67
2023/07/02 02:35:06;;;;;;;;;;;;;;;20.03;56.83;98849.22;10244566;28;1382;-67
2023/07/02 02:40:05;;;;;;;;;;;;;;;20.03;57.04;98857.16;10245695;28;845;-67
2023/07/02 02:45:02;;;;;;;;;;;;;;;20.03;57.04;98857.16;10244314;28;980;-67
2023/07/02 02:49:58;;;;;;;;;;;;;;;20.02;57.16;98844.91;10245433;28;1910;-67
2023/07/02 02:54:55;;;;;;;;;;;;;;;19.99;56.99;98847.72;10244215;28;696;-67
2023/07/02 02:59:52;;;;;;;;;;;;;;;20.00;56.90;98841.50;10245214;28;808;-67
2023/07/02 03:04:49;;;;;;;;;;;;;;;19.99;56.96;98847.72;10244859;28;921;-67
2023/07/02 03:09:45;;;;;;;;;;;;;;;19.99;57.09;98850.38;10244026;28;810;-67
2023/07/02 03:14:42;;;;;;;;;;;;;;;19.97;57.13;98866.38;10244320;28;2048;-67
2023/07/02 03:19:39;;;;;;;;;;;;;;;19.97;56.94;98849.66;10243729;28;866;-67
2023/07/02 03:24:36;;;;;;;;;;;;;;;19.96;57.07;98850.56;10244258;28;837;-67
2023/07/02 03:29:32;;;;;;;;;;;;;;;19.96;56.97;98848.78;10244149;28;920;-67
2023/07/02 03:34:29;;;;;;;;;;;;;;;19.93;56.96;98857.75;10243752;28;1990;-67
2023/07/02 03:39:26;;;;;;;;;;;;;;;19.93;56.85;98863.06;10243957;28;772;-67
2023/07/02 03:44:22;;;;;;;;;;;;;;;19.93;56.90;98864.84;10243276;28;884;-67
2023/07/02 03:49:19;;;;;;;;;;;;;;;19.91;56.92;98864.97;10249633;28;921;-67
2023/07/02 03:54:16;;;;;;;;;;;;;;;19.92;56.78;98876.41;10251399;28;1922;-67
2023/07/02 03:59:13;;;;;;;;;;;;;;;19.91;56.89;98886.13;10250604;28;818;-67
2023/07/02 04:04:11;;;;;;;;;;;;;;;19.91;56.92;98886.13;10250388;28;771;-67
2023/07/02 04:09:08;;;;;;;;;;;;;;;19.90;56.78;98897.66;10250401;28;971;-67
2023/07/02 04:14:04;;;;;;;;;;;;;;;19.91;56.86;98901.13;10249940;28;1956;-67
2023/07/02 04:19:01;;;;;;;;;;;;;;;19.89;56.83;98909.19;10250417;28;864;-67
2023/07/02 04:23:58;;;;;;;;;;;;;;;19.88;56.66;98917.19;10249647;28;949;-67
2023/07/02 04:28:55;;;;;;;;;;;;;;;19.95;56.46;98920.31;10249477;28;797;-67
2023/07/02 04:33:51;;;;;;;;;;;;;;;19.99;56.51;98914.72;10249125;28;1906;-67
2023/07/02 04:38:48;;;;;;;;;;;;;;;20.02;56.37;98921.63;10248503;28;799;-67
2023/07/02 04:43:45;;;;;;;;;;;;;;;20.04;56.33;98924.97;10248839;28;774;-67
2023/07/02 04:48:42;;;;;;;;;;;;;;;20.05;56.38;98930.19;10248638;28;933;-67
2023/07/02 04:53:38;;;;;;;;;;;;;;;20.06;56.44;98934.50;10249038;28;1977;-66
2023/07/02 04:58:35;;;;;;;;;;;;;;;20.07;56.50;98941.53;10248084;28;916;-67
2023/07/02 05:03:32;;;;;;;;;;;;;;;20.07;56.32;98940.69;10248100;28;890;-67
2023/07/02 05:08:29;;;;;;;;;;;;;;;20.08;56.38;98947.66;10249373;28;865;-67
2023/07/02 05:13:25;;;;;;;;;;;;;;;20.09;56.44;98949.34;10247811;28;1965;-67
2023/07/02 05:18:22;;;;;;;;;;;;;;;20.08;56.52;98950.31;10247584;28;983;-67
2023/07/02 05:23:19;;;;;;;;;;;;;;;20.09;56.38;98965.22;10247932;28;964;-68
2023/07/02 05:28:16;;;;;;;;;;;;;;;20.09;56.49;98967.84;10247472;28;999;-67
2023/07/02 05:33:13;;;;;;;;;;;;;;;20.09;56.44;98959.91;10246958;28;1902;-67
2023/07/02 05:38:09;;;;;;;;;;;;;;;20.10;56.46;98974.88;10246789;28;793;-67
2023/07/02 05:43:06;;;;;;;;;;;;;;;20.11;56.43;98973.91;10246755;28;837;-66
2023/07/02 05:48:03;;;;;;;;;;;;;;;20.12;56.06;98978.22;10246339;28;783;-67
2023/07/02 05:53:00;;;;;;;;;;;;;;;20.11;56.38;98980.03;10246384;28;1973;-66
2023/07/02 05:58:01;;;;;;;;;;;;;;;20.12;56.19;98992.34;10245995;28;811;-71
2023/07/02 06:02:58;;;;;;;;;;;;;;;20.11;56.09;98984.50;10246364;28;946;-66
2023/07/02 06:07:54;;;;;;;;;;;;;;;20.12;56.17;98988.81;10246251;28;834;-67
2023/07/02 06:12:52;;;;;;;;;;;;;;;20.13;55.96;98995.81;10237234;28;1933;-66
2023/07/02 06:17:48;;;;;;;;;;;;;;;20.11;56.17;98998.56;10227758;28;883;-67
2023/07/02 06:22:45;;;;;;;;;;;;;;;20.14;56.19;99002.81;10222011;28;830;-67
2023/07/02 06:27:42;;;;;;;;;;;;;;;20.16;56.23;99000.06;10204098;28;1204;-66
2023/07/02 06:32:39;;;;;;;;;;;;;;;20.18;56.10;99006.97;10204384;28;1961;-67
2023/07/02 06:37:35;;;;;;;;;;;;;;;20.21;56.27;99008.56;10204558;28;921;-67
2023/07/02 06:42:33;;;;;;;;;;;;;;;20.20;55.92;99015.66;10204393;28;866;-66
2023/07/02 06:47:29;;;;;;;;;;;;;;;20.21;55.75;99025.28;10204306;28;779;-67
2023/07/02 06:52:26;;;;;;;;;;;;;;;20.24;56.10;99030.38;10204270;28;1971;-66
2023/07/02 06:57:23;;;;;;;;;;;;;;;20.25;56.04;99032.09;10204973;28;857;-67
2023/07/02 07:02:20;;;;;;;;;;;;;;;20.24;56.19;99033.00;10204453;28;766;-67
2023/07/02 07:07:16;;;;;;;;;;;;;;;20.25;56.17;99033.84;10203668;28;889;-66
2023/07/02 07:12:13;;;;;;;;;;;;;;;20.23;56.18;99036.63;10205169;28;1961;-66
2023/07/02 07:17:10;;;;;;;;;;;;;;;20.23;56.35;99036.63;10203754;28;879;-67
2023/07/02 07:22:07;;;;;;;;;;;;;;;20.25;56.55;99037.38;10207837;28;869;-66
2023/07/02 07:27:03;;;;;;;;;;;;;;;20.24;56.13;99048.06;10212143;28;798;-66
2023/07/02 07:32:00;;;;;;;;;;;;;;;20.21;56.43;99042.97;10211240;28;1989;-67
2023/07/02 07:36:57;;;;;;;;;;;;;;;20.17;56.37;99047.59;10210601;28;1000;-67
2023/07/02 07:41:54;;;;;;;;;;;;;;;20.22;56.10;99047.28;10222706;28;1213;-67
2023/07/02 07:46:50;;;;;;;;;;;;;;;20.20;55.88;99046.53;10251354;28;826;-67
2023/07/02 07:51:47;;;;;;;;;;;;;;;20.19;55.02;99039.56;10250453;28;1901;-67
2023/07/02 07:56:44;;;;;;;;;;;;;;;20.16;55.35;99051.19;10250947;28;827;-66
2023/07/02 08:01:41;;;;;;;;;;;;;;;20.17;55.27;99062.63;10250742;28;928;-67
2023/07/02 08:06:38;;;;;;;;;;;;;;;20.16;55.31;99066.22;10251017;28;847;-67
2023/07/02 08:11:34;;;;;;;;;;;;;;;20.13;55.14;99067.25;10250424;28;1910;-67
2023/07/02 08:16:31;;;;;;;;;;;;;;;20.12;55.11;99070.84;10250033;28;964;-67
2023/07/02 08:21:28;;;;;;;;;;;;;;;20.11;55.38;99080.56;10250504;28;889;-67
2023/07/02 08:26:24;;;;;;;;;;;;;;;20.08;55.41;99072.84;10249462;28;789;-67
2023/07/02 08:31:21;;;;;;;;;;;;;;;20.10;54.89;99083.34;10248464;28;1914;-67
2023/07/02 08:36:18;;;;;;;;;;;;;;;20.09;55.07;99086.91;10248886;28;936;-67
2023/07/02 08:41:15;;;;;;;;;;;;;;;20.12;54.67;99090.22;10248471;28;1086;-67
2023/07/02 08:46:12;;;;;;;;;;;;;;;20.14;54.33;99098.06;10249401;28;851;-67
2023/07/02 08:51:08;;;;;;;;;;;;;;;20.15;54.86;99102.41;10248966;28;1964;-66
2023/07/02 08:56:05;;;;;;;;;;;;;;;20.17;54.60;99099.66;10248480;28;772;-67
2023/07/02 09:01:02;;;;;;;;;;;;;;;20.17;54.87;99099.66;10248131;28;864;-67
2023/07/02 09:05:59;;;;;;;;;;;;;;;20.14;54.90;99111.28;10247934;28;855;-66
2023/07/02 09:10:55;;;;;;;;;;;;;;;20.12;54.90;99119.34;10247447;28;1074;-67
2023/07/02 09:15:52;;;;;;;;;;;;;;;20.11;54.98;99114.97;10246803;28;1955;-67
2023/07/02 09:20:49;;;;;;;;;;;;;;;20.13;54.83;99115.72;10247836;28;864;-65
2023/07/02 09:25:46;;;;;;;;;;;;;;;20.13;54.93;99112.25;10247705;28;928;-67
2023/07/02 09:30:42;;;;;;;;;;;;;;;20.12;54.78;99113.16;10246914;28;1061;-67
2023/07/02 09:35:39;;;;;;;;;;;;;;;20.10;54.92;99115.09;10247340;28;1902;-67
2023/07/02 09:40:36;;;;;;;;;;;;;;;20.07;53.53;99116.13;10247131;28;881;-67
2023/07/02 09:45:32;;;;;;;;;;;;;;;20.06;54.69;99129.44;10246498;28;885;-67
2023/07/02 09:50:29;;;;;;;;;;;;;;;20.03;54.87;99125.19;10246672;28;847;-67
2023/07/02 09:55:26;;;;;;;;;;;;;;;20.04;54.84;99126.91;10245895;28;1894;-67
2023/07/02 10:00:23;;;;;;;;;;;;;;;20.02;54.91;99131.44;10245720;28;855;-67
2023/07/02 10:05:19;;;;;;;;;;;;;;;20.02;55.15;99133.25;10245485;28;810;-67
2023/07/02 10:10:16;;;;;;;;;;;;;;;20.01;54.81;99132.38;10245952;28;881;-67
2023/07/02 10:15:13;;;;;;;;;;;;;;;20.03;52.92;99130.47;10245072;28;1894;-67
2023/07/02 10:20:11;;;;;;;;;;;;;;;20.03;52.48;99135.78;10245738;28;862;-67
2023/07/02 10:25:08;;;;;;;;;;;;;;;20.05;53.05;99138.34;10244990;28;843;-67
2023/07/02 10:30:05;;;;;;;;;;;;;;;20.03;52.19;99133.13;10244002;28;970;-67
2023/07/02 10:35:04;;;;;;;;;;;;;;;20.00;53.63;99132.47;10244860;28;1922;-67
2023/07/02 10:40:00;;;;;;;;;;;;;;;19.98;53.65;99137.84;10244533;28;802;-67
2023/07/02 10:44:57;;;;;;;;;;;;;;;19.96;54.04;99134.44;10244295;28;873;-67
2023/07/02 10:49:54;;;;;;;;;;;;;;;19.96;53.08;99138.91;10244784;28;810;-67
2023/07/02 10:54:51;;;;;;;;;;;;;;;19.98;53.28;99137.00;10242821;28;1894;-67
2023/07/02 10:59:48;;;;;;;;;;;;;;;20.00;51.87;99140.41;10244511;28;814;-67
2023/07/02 11:04:44;;;;;;;;;;;;;;;20.00;52.32;99138.63;10243690;28;805;-67
2023/07/02 11:09:41;;;;;;;;;;;;;;;20.00;52.29;99129.84;10244323;28;842;-66
2023/07/02 11:14:39;;;;;;;;;;;;;;;20.01;53.18;99137.66;10244094;28;1898;-66
2023/07/02 11:19:36;;;;;;;;;;;;;;;20.01;53.67;99153.53;10243480;28;874;-66
2023/07/02 11:24:33;;;;;;;;;;;;;;;19.99;53.66;99163.38;10243611;28;933;-66
2023/07/02 11:29:30;;;;;;;;;;;;;;;19.97;54.09;99161.78;10243337;28;886;-66
2023/07/02 11:34:27;;;;;;;;;;;;;;;19.99;53.73;99175.72;10242489;28;1914;-66
2023/07/02 11:39:23;;;;;;;;;;;;;;;19.97;54.15;99172.34;10243355;28;842;-66
2023/07/02 11:44:20;;;;;;;;;;;;;;;19.95;54.07;99168.94;10243185;28;767;-66
2023/07/02 11:49:17;;;;;;;;;;;;;;;19.96;54.24;99171.47;10242951;28;876;-66
2023/07/02 11:54:14;;;;;;;;;;;;;;;19.94;54.21;99168.09;10243437;28;1969;-67
2023/07/02 11:59:11;;;;;;;;;;;;;;;19.93;53.74;99172.50;10243397;28;830;-68
2023/07/02 12:04:08;;;;;;;;;;;;;;;19.96;54.01;99182.06;10242236;28;890;-68
2023/07/02 12:09:04;;;;;;;;;;;;;;;19.96;53.76;99170.63;10247202;28;786;-69
2023/07/02 12:14:01;;;;;;;;;;;;;;;19.96;53.79;99170.63;10250380;28;1894;-68
2023/07/02 12:18:58;;;;;;;;;;;;;;;19.92;51.80;99165.53;10249644;28;874;-68
2023/07/02 12:23:55;;;;;;;;;;;;;;;19.93;52.94;99159.28;10249507;28;845;-67
2023/07/02 12:28:51;;;;;;;;;;;;;;;19.95;51.92;99158.38;10250653;28;865;-67
2023/07/02 12:33:48;;;;;;;;;;;;;;;19.95;52.34;99172.44;10248780;28;1906;-67
2023/07/02 12:38:45;;;;;;;;;;;;;;;19.94;51.65;99165.47;10249553;28;893;-66
2023/07/02 12:43:42;;;;;;;;;;;;;;;19.91;53.82;99179.72;10249416;28;940;-66
2023/07/02 12:48:39;;;;;;;;;;;;;;;19.93;53.78;99169.03;10249117;28;763;-66
2023/07/02 12:53:36;;;;;;;;;;;;;;;19.97;52.95;99182.94;10248509;28;1890;-67
2023/07/02 12:58:32;;;;;;;;;;;;;;;19.93;53.59;99188.38;10247806;28;901;-67
2023/07/02 13:03:29;;;;;;;;;;;;;;;19.95;53.81;99190.09;10248651;28;859;-66
2023/07/02 13:08:26;;;;;;;;;;;;;;;19.96;54.13;99181.22;10247882;28;830;-67
2023/07/02 13:13:23;;;;;;;;;;;;;;;19.99;54.17;99188.97;10247621;28;1964;-67
2023/07/02 13:18:20;;;;;;;;;;;;;;;20.02;54.00;99183.50;10246843;28;838;-66
2023/07/02 13:23:16;;;;;;;;;;;;;;;20.04;53.79;99181.59;10247939;28;822;-66
2023/07/02 13:28:13;;;;;;;;;;;;;;;20.04;54.03;99186.88;10247200;28;953;-67
2023/07/02 13:33:10;;;;;;;;;;;;;;;20.02;53.70;99188.78;10246514;28;1913;-67
2023/07/02 13:38:07;;;;;;;;;;;;;;;20.01;53.56;99190.56;10247529;28;921;-67
2023/07/02 13:43:04;;;;;;;;;;;;;;;20.01;53.57;99187.91;10246681;28;936;-66
2023/07/02 13:48:01;;;;;;;;;;;;;;;20.04;53.82;99184.22;10246475;28;903;-67
2023/07/02 13:52:57;;;;;;;;;;;;;;;20.06;53.44;99190.28;10246264;28;1901;-67
2023/07/02 13:57:59;;;;;;;;;;;;;;;20.07;53.31;99182.28;10246950;28;791;-66
2023/07/02 14:02:56;;;;;;;;;;;;;;;20.08;53.28;99201.63;10245289;28;863;-67
2023/07/02 14:07:53;;;;;;;;;;;;;;;20.09;53.52;99192.75;10246378;28;901;-67
2023/07/02 14:12:50;;;;;;;;;;;;;;;20.09;53.34;99176.88;10245642;28;1905;-67
2023/07/02 14:17:47;;;;;;;;;;;;;;;20.10;53.49;99194.47;10245947;28;835;-67
2023/07/02 14:22:43;;;;;;;;;;;;;;;20.08;53.57;99181.31;10245283;28;771;-67
2023/07/02 14:27:40;;;;;;;;;;;;;;;20.11;53.37;99190.84;10245038;28;859;-67
2023/07/02 14:32:37;;;;;;;;;;;;;;;20.13;53.20;99183.69;10244078;28;1918;-67
2023/07/02 14:37:34;;;;;;;;;;;;;;;20.16;52.96;99172.06;10244911;28;785;-66
2023/07/02 14:42:31;;;;;;;;;;;;;;;20.17;53.04;99184.34;10244581;28;950;-67
2023/07/02 14:47:28;;;;;;;;;;;;;;;20.17;52.85;99184.34;10245063;28;809;-67
2023/07/02 14:52:25;;;;;;;;;;;;;;;20.16;53.12;99178.19;10244346;28;1902;-66
2023/07/02 14:57:22;;;;;;;;;;;;;;;20.16;53.02;99172.06;10244629;28;849;-66
2023/07/02 15:02:19;;;;;;;;;;;;;;;20.15;52.96;99168.56;10243798;28;866;-66
2023/07/02 15:07:16;;;;;;;;;;;;;;;20.17;52.99;99173.75;10244023;28;771;-66
2023/07/02 15:12:12;;;;;;;;;;;;;;;20.15;53.05;99176.50;10243896;28;773;-67
2023/07/02 15:17:09;;;;;;;;;;;;;;;20.13;52.95;99171.28;10244891;28;1879;-67
2023/07/02 15:22:06;;;;;;;;;;;;;;;20.13;53.00;99167.81;10243771;28;837;-66
2023/07/02 15:27:03;;;;;;;;;;;;;;;20.12;52.97;99166.97;10243742;28;814;-67
2023/07/02 15:32:00;;;;;;;;;;;;;;;20.13;53.00;99163.34;10243730;28;1237;-66
2023/07/02 15:36:57;;;;;;;;;;;;;;;20.15;52.99;99168.56;10244112;28;1969;-66
2023/07/02 15:41:53;;;;;;;;;;;;;;;20.16;52.67;99178.19;10245249;28;889;-67
2023/07/02 15:46:50;;;;;;;;;;;;;;;20.15;52.60;99176.50;10251214;28;782;-67
2023/07/02 15:51:47;;;;;;;;;;;;;;;20.14;52.63;99169.50;10250404;28;825;-66
2023/07/02 15:56:44;;;;;;;;;;;;;;;20.14;52.61;99169.50;10249703;28;1898;-67
2023/07/02 16:01:44;;;;;;;;;;;;;;;20.14;52.56;99169.50;10249593;28;865;-67
2023/07/02 16:06:41;;;;;;;;;;;;;;;20.13;52.58;99173.94;10250568;28;891;-67
2023/07/02 16:11:41;;;;;;;;;;;;;;;20.13;52.74;99173.09;10250750;28;819;-66
2023/07/02 16:16:40;;;;;;;;;;;;;;;20.13;52.77;99168.66;10249957;28;1901;-66
2023/07/02 16:21:44;;;;;;;;;;;;;;;20.14;52.70;99178.28;10249886;28;931;-66
2023/07/02 16:26:41;;;;;;;;;;;;;;;20.16;53.00;99170.25;10249745;28;806;-66
2023/07/02 16:31:41;;;;;;;;;;;;;;;20.17;53.28;99161.34;10249373;28;1106;-66
2023/07/02 16:36:38;;;;;;;;;;;;;;;20.17;53.40;99153.41;10249319;28;1914;-65
2023/07/02 16:41:35;;;;;;;;;;;;;;;20.19;53.25;99161.28;10249266;28;933;-66
2023/07/02 16:46:33;;;;;;;;;;;;;;;20.19;53.23;99159.47;10249150;28;934;-66
2023/07/02 16:51:30;;;;;;;;;;;;;;;20.19;53.31;99162.13;10248807;28;752;-66
2023/07/02 16:56:26;;;;;;;;;;;;;;;20.19;53.36;99164.78;10247528;28;1894;-66
2023/07/02 17:01:23;;;;;;;;;;;;;;;20.20;53.30;99157.66;10249013;28;821;-66
2023/07/02 17:06:20;;;;;;;;;;;;;;;20.19;53.41;99166.56;10248177;28;950;-66
2023/07/02 17:11:17;;;;;;;;;;;;;;;20.19;53.45;99166.56;10247317;28;873;-66
2023/07/02 17:16:14;;;;;;;;;;;;;;;20.17;53.27;99158.72;10248401;28;1957;-66
2023/07/02 17:21:11;;;;;;;;;;;;;;;20.18;53.34;99157.78;10247654;28;767;-66
2023/07/02 17:26:08;;;;;;;;;;;;;;;20.18;53.60;99154.28;10246903;28;1250;-66
2023/07/02 17:31:05;;;;;;;;;;;;;;;20.16;53.22;99157.03;10247694;28;1223;-67
2023/07/02 17:36:02;;;;;;;;;;;;;;;20.17;53.49;99156.06;10247849;28;1918;-66
2023/07/02 17:40:59;;;;;;;;;;;;;;;20.17;53.42;99153.41;10246795;28;882;-66
2023/07/02 17:45:56;;;;;;;;;;;;;;;20.17;53.29;99152.56;10246042;28;879;-66
2023/07/02 17:50:52;;;;;;;;;;;;;;;20.18;53.08;99152.50;10246501;28;877;-67
2023/07/02 17:55:49;;;;;;;;;;;;;;;20.16;53.38;99149.09;10246240;28;1957;-67
2023/07/02 18:00:46;;;;;;;;;;;;;;;20.16;53.35;99143.78;10246523;28;950;-67
2023/07/02 18:05:43;;;;;;;;;;;;;;;20.16;53.36;99138.50;10227992;28;790;-67
2023/07/02 18:10:41;;;;;;;;;;;;;;;20.16;53.40;99143.78;10246463;28;783;-67
2023/07/02 18:15:38;;;;;;;;;;;;;;;20.16;53.34;99145.59;10246133;28;1964;-67
2023/07/02 18:20:35;;;;;;;;;;;;;;;20.16;53.27;99141.16;10246036;28;869;-67
2023/07/02 18:25:32;;;;;;;;;;;;;;;20.16;53.46;99141.16;10245899;28;802;-67
2023/07/02 18:30:29;;;;;;;;;;;;;;;20.16;53.36;99137.66;10245691;28;907;-67
2023/07/02 18:35:26;;;;;;;;;;;;;;;20.16;53.29;99141.16;10244680;28;1914;-67
2023/07/02 18:40:22;;;;;;;;;;;;;;;20.17;53.19;99142.00;10244799;28;782;-67
2023/07/02 18:45:21;;;;;;;;;;;;;;;20.16;53.34;99140.31;10244576;28;969;-67
2023/07/02 18:50:18;;;;;;;;;;;;;;;20.16;53.38;99141.16;10244847;28;887;-67
2023/07/02 18:55:15;;;;;;;;;;;;;;;20.16;53.48;99130.56;10244157;28;1944;-67
2023/07/02 19:00:12;;;;;;;;;;;;;;;20.17;53.27;99136.69;10244854;28;803;-67
2023/07/02 19:05:09;;;;;;;;;;;;;;;20.14;53.33;99128.00;10244694;28;792;-67
2023/07/02 19:10:06;;;;;;;;;;;;;;;20.14;53.15;99125.34;10244673;28;931;-67
2023/07/02 19:15:03;;;;;;;;;;;;;;;20.13;53.28;99122.81;10244508;28;1961;-67
2023/07/02 19:20:00;;;;;;;;;;;;;;;20.13;53.30;99130.75;10250657;28;867;-66
2023/07/02 19:24:57;;;;;;;;;;;;;;;20.13;53.30;99122.81;10251496;28;996;-66
2023/07/02 19:29:56;;;;;;;;;;;;;;;20.13;53.05;99130.75;10253350;28;921;-67
2023/07/02 19:34:53;;;;;;;;;;;;;;;20.13;53.08;99125.47;10252261;28;1902;-67
2023/07/02 19:39:50;;;;;;;;;;;;;;;20.12;53.28;99119.34;10252100;28;894;-67
2023/07/02 19:44:46;;;;;;;;;;;;;;;20.13;53.00;99120.19;10251275;28;867;-67
2023/07/02 19:49:44;;;;;;;;;;;;;;;20.13;53.15;99115.72;10251370;28;897;-66
2023/07/02 19:54:44;;;;;;;;;;;;;;;20.14;53.14;99122.72;10250797;28;1894;-66
2023/07/02 19:59:41;;;;;;;;;;;;;;;20.14;53.17;99122.72;10250326;28;864;-63
2023/07/02 20:04:38;;;;;;;;;;;;;;;20.13;53.24;99125.47;10250635;28;863;-67
2023/07/02 20:09:37;;;;;;;;;;;;;;;20.14;53.36;99133.28;10250516;28;858;-67
2023/07/02 20:14:34;;;;;;;;;;;;;;;20.13;53.54;99134.25;10250139;28;1897;-67
2023/07/02 20:19:31;;;;;;;;;;;;;;;20.13;53.49;99126.31;10249972;28;911;-67
2023/07/02 20:24:28;;;;;;;;;;;;;;;20.13;53.49;99136.91;10250407;28;861;-67
2023/07/02 20:29:25;;;;;;;;;;;;;;;20.13;53.63;99125.47;10249639;28;932;-67
2023/07/02 20:34:23;;;;;;;;;;;;;;;20.12;53.71;99151.09;10248762;28;1907;-67
2023/07/02 20:39:22;;;;;;;;;;;;;;;20.13;53.69;99141.34;10249501;28;1118;-67
2023/07/02 20:44:19;;;;;;;;;;;;;;;20.12;53.64;99135.22;10249299;28;752;-67
2023/07/02 20:49:16;;;;;;;;;;;;;;;20.11;53.62;99138.78;10249729;28;886;-67
2023/07/02 20:54:13;;;;;;;;;;;;;;;20.11;53.76;99140.59;10248680;28;1918;-67
2023/07/02 20:59:10;;;;;;;;;;;;;;;20.11;53.72;99143.22;10248287;28;1187;-67
2023/07/02 21:04:06;;;;;;;;;;;;;;;20.10;53.52;99147.69;10248865;28;1031;-67
2023/07/02 21:09:03;;;;;;;;;;;;;;;20.11;53.74;99151.16;10248364;28;842;-67
2023/07/02 21:14:00;;;;;;;;;;;;;;;20.10;53.61;99149.47;10248666;28;1906;-67
2023/07/02 21:18:57;;;;;;;;;;;;;;;20.09;53.58;99156.53;10247736;28;866;-66
2023/07/02 21:23:54;;;;;;;;;;;;;;;20.10;53.74;99154.78;10247905;28;847;-67
2023/07/02 21:28:51;;;;;;;;;;;;;;;20.09;53.87;99168.94;10247665;28;948;-67
2023/07/02 21:33:48;;;;;;;;;;;;;;;20.08;53.94;99165.44;10247400;28;1914;-67
2023/07/02 21:38:46;;;;;;;;;;;;;;;20.08;53.88;99181.31;10247387;28;870;-67
2023/07/02 21:43:43;;;;;;;;;;;;;;;20.09;53.80;99184.81;10246701;28;772;-67
2023/07/02 21:48:40;;;;;;;;;;;;;;;20.07;53.85;99192.84;10246897;28;800;-67
2023/07/02 21:53:37;;;;;;;;;;;;;;;20.07;53.79;99181.44;10247065;28;793;-67
2023/07/02 21:58:34;;;;;;;;;;;;;;;20.06;53.93;99172.63;10246859;28;1910;-67
2023/07/02 22:03:31;;;;;;;;;;;;;;;20.06;53.84;99163.84;10246172;28;762;-66
2023/07/02 22:08:28;;;;;;;;;;;;;;;20.06;53.89;99161.19;10245793;28;890;-67
2023/07/02 22:13:24;;;;;;;;;;;;;;;20.05;53.77;99163.00;10246307;28;853;-67
2023/07/02 22:18:21;;;;;;;;;;;;;;;20.04;54.05;99163.94;10244899;28;1890;-67
2023/07/02 22:23:18;;;;;;;;;;;;;;;20.04;54.00;99177.19;10245408;28;888;-67
2023/07/02 22:28:15;;;;;;;;;;;;;;;20.05;53.94;99167.44;10245647;28;873;-67
2023/07/02 22:33:12;;;;;;;;;;;;;;;20.05;53.88;99160.34;10244968;28;1228;-67
2023/07/02 22:38:10;;;;;;;;;;;;;;;20.03;53.89;99161.38;10243761;28;1910;-67
2023/07/02 22:43:07;;;;;;;;;;;;;;;20.04;53.90;99171.00;10244594;28;831;-67
2023/07/02 22:48:04;;;;;;;;;;;;;;;20.03;53.96;99158.75;10244026;28;842;-67
2023/07/02 22:53:01;;;;;;;;;;;;;;;20.03;54.08;99158.75;10243626;28;904;-67
2023/07/02 22:57:58;;;;;;;;;;;;;;;20.02;53.95;99149.97;10244881;28;1890;-67
2023/07/02 23:02:55;;;;;;;;;;;;;;;20.03;54.00;99150.81;10244802;28;862;-67
2023/07/02 23:07:52;;;;;;;;;;;;;;;20.02;53.99;99152.59;10244777;28;841;-67
2023/07/02 23:12:48;;;;;;;;;;;;;;;20.02;54.02;99160.53;10243921;28;897;-67
2023/07/02 23:17:45;;;;;;;;;;;;;;;20.02;54.10;99151.75;10243844;28;1890;-67
2023/07/02 23:22:42;;;;;;;;;;;;;;;20.01;54.15;99152.69;10244731;28;832;-67
2023/07/02 23:27:39;;;;;;;;;;;;;;;20.00;53.87;99156.28;10243880;28;788;-67
2023/07/02 23:32:36;;;;;;;;;;;;;;;19.97;53.94;99151.19;10244273;28;1130;-67
2023/07/02 23:37:36;;;;;;;;;;;;;;;19.96;54.00;99149.47;10244075;28;1910;-67
2023/07/02 23:42:34;;;;;;;;;;;;;;;19.97;54.03;99145.91;10244043;28;847;-67
2023/07/02 23:47:31;;;;;;;;;;;;;;;19.94;53.41;99141.66;10243562;28;937;-67
2023/07/02 23:52:28;;;;;;;;;;;;;;;19.94;53.69;99146.94;10243916;28;930;-67
2023/07/02 23:57:25;;;;;;;;;;;;;;;19.92;53.59;99144.38;10243707;28;1893;-67
